aviador You're here:

YBAS Decoded Metar

ALICE SPRINGS in AUSTRALIA
Report Time2018-01-23 03:30:00
UTC Time2018-01-23 04:05:12
Flight Rules vfr VFR
Wind100° at 07 kt
W.Decomp.*RWY 12: 6.3 kt HW 3 kt LCW
RWY 17: 1.8 kt HW 6.8 kt LCW
W.Rank100° ranks 7
Current wind is below 100° avg. (8.2)
Visibility9999 m
Phenomena:N/A
Clouds:N/A
Expected CloudBase > 13,200 ft AGL from Temp-Dew spread
CeilingNone
Temp39°C (ISA +28)
Dew Point06°C (13% RH)
Heat Index36.5°C
AAT35.5°C
QNH1006 hPa
Density Alt5,220 ft
Elevation1,775 ft
Report Wrong Elevation
Raw Report
YBAS 230330Z AUTO 10007KT 050V120 9999 // NCD 39/06 Q1006
RF00.0/000.0=

Extra information for YBAS:More info

Metar Taf Metar & Taf Last 4 Metars F.Rules Stats Wind Profile Meteogram Temp Stats Airport Information Weather charts Add Link Nearby VenuesMetar ALERT Operation Metar Decoded Social comments